Time;durP1;ratioP1;P1;durP2;ratioP2;P2;SDS_P1;SDS_P2;PMS_P1;PMS_P2;Temp;Humidity;BMP_temperature;BMP_pressure;BME280_temperature;BME280_humidity;BME280_pressure;Samples;Min_cycle;Max_cycle;Signal;HPM_P1;HPM_P2
2023/12/01 00:00:29;;;;;;;34.03;19.20;;;2.70;99.90;;;;;;4952852;28;20447;-53
2023/12/01 00:02:54;;;;;;;33.10;20.27;;;2.60;99.90;;;;;;4970344;28;20065;-54
2023/12/01 00:05:20;;;;;;;104.88;57.65;;;2.70;99.90;;;;;;4952694;28;20026;-58
2023/12/01 00:07:45;;;;;;;145.85;75.18;;;2.70;99.90;;;;;;4971308;28;20424;-57
2023/12/01 00:10:11;;;;;;;109.93;56.83;;;2.80;99.90;;;;;;4970643;28;20490;-56
2023/12/01 00:12:37;;;;;;;45.63;26.77;;;2.80;99.90;;;;;;4970412;28;20026;-56
2023/12/01 00:15:04;;;;;;;28.17;18.83;;;2.80;99.90;;;;;;4972952;28;20023;-56
2023/12/01 00:17:29;;;;;;;33.25;20.02;;;2.70;99.90;;;;;;4970611;28;20023;-59
2023/12/01 00:19:55;;;;;;;35.13;20.42;;;2.80;99.90;;;;;;4970791;28;20023;-57
2023/12/01 00:22:20;;;;;;;34.83;19.50;;;2.80;99.90;;;;;;4970377;28;20034;-58
2023/12/01 00:24:45;;;;;;;35.42;21.10;;;2.70;99.90;;;;;;4953278;28;20073;-63
2023/12/01 00:27:11;;;;;;;35.40;21.02;;;2.70;99.90;;;;;;4953313;28;20592;-60
2023/12/01 00:29:36;;;;;;;37.75;20.08;;;2.70;99.90;;;;;;4954271;28;20023;-60
2023/12/01 00:32:02;;;;;;;36.15;18.95;;;2.80;99.90;;;;;;4971935;28;20035;-53
2023/12/01 00:34:29;;;;;;;36.80;21.40;;;2.80;99.90;;;;;;4953886;28;20073;-55
2023/12/01 00:36:57;;;;;;;35.22;21.38;;;2.70;99.90;;;;;;4970345;28;20023;-58
2023/12/01 00:39:22;;;;;;;37.42;20.80;;;2.70;99.90;;;;;;4952976;28;20517;-48
2023/12/01 00:41:48;;;;;;;32.58;19.52;;;2.70;99.90;;;;;;4969968;28;20031;-51
2023/12/01 00:44:14;;;;;;;41.00;21.77;;;2.60;99.90;;;;;;4969660;28;20035;-46
2023/12/01 00:46:39;;;;;;;38.38;21.33;;;2.60;99.90;;;;;;4952926;28;20443;-51
2023/12/01 00:49:05;;;;;;;34.90;20.50;;;2.60;99.90;;;;;;4970234;28;20031;-53
2023/12/01 00:51:30;;;;;;;36.80;20.13;;;2.60;99.90;;;;;;4969792;28;20122;-49
2023/12/01 00:53:56;;;;;;;40.28;22.35;;;2.60;99.90;;;;;;4969786;28;20027;-53
2023/12/01 00:56:21;;;;;;;37.08;20.83;;;2.70;99.90;;;;;;4952817;28;20022;-48
2023/12/01 00:58:47;;;;;;;39.90;22.02;;;2.70;99.90;;;;;;4969845;28;20501;-50
2023/12/01 01:01:13;;;;;;;42.50;22.33;;;2.70;99.90;;;;;;4969865;28;20019;-52
2023/12/01 01:03:38;;;;;;;34.03;19.67;;;2.70;99.90;;;;;;4972320;28;20113;-51
2023/12/01 01:06:04;;;;;;;37.40;20.00;;;2.70;99.90;;;;;;4989094;28;20080;-50
2023/12/01 01:08:30;;;;;;;35.88;21.02;;;2.70;99.90;;;;;;4971860;28;20044;-48
2023/12/01 01:10:56;;;;;;;37.20;20.30;;;2.70;99.90;;;;;;4972258;28;20027;-55
2023/12/01 01:13:22;;;;;;;33.03;19.77;;;2.70;99.90;;;;;;4968898;28;20386;-49
2023/12/01 01:15:48;;;;;;;36.88;21.25;;;2.70;99.90;;;;;;4969517;28;20405;-49
2023/12/01 01:18:15;;;;;;;35.63;19.67;;;2.80;99.90;;;;;;4970362;28;20030;-48
2023/12/01 01:20:40;;;;;;;37.30;20.05;;;2.70;99.90;;;;;;4970526;28;20098;-47
2023/12/01 01:23:06;;;;;;;37.67;20.17;;;2.70;99.90;;;;;;4969872;28;20478;-50
2023/12/01 01:25:31;;;;;;;36.53;20.67;;;2.60;99.90;;;;;;4970050;28;20039;-45
2023/12/01 01:27:57;;;;;;;36.03;18.88;;;2.70;99.90;;;;;;4970229;28;20027;-46
2023/12/01 01:30:22;;;;;;;31.95;18.67;;;2.60;99.90;;;;;;4952952;28;20403;-46
2023/12/01 01:32:48;;;;;;;32.13;17.92;;;2.60;99.90;;;;;;4952443;28;20450;-45
2023/12/01 01:35:14;;;;;;;33.13;17.90;;;2.70;99.90;;;;;;4970046;28;20027;-47
2023/12/01 01:37:40;;;;;;;26.27;15.48;;;2.70;99.90;;;;;;4969960;28;20501;-49
2023/12/01 01:40:07;;;;;;;31.00;18.17;;;2.80;99.90;;;;;;4952446;28;20027;-48
2023/12/01 01:42:33;;;;;;;27.50;17.20;;;2.70;99.90;;;;;;4968959;28;20421;-46
2023/12/01 01:44:59;;;;;;;27.00;15.82;;;2.70;99.90;;;;;;4969925;28;20019;-47
2023/12/01 01:47:25;;;;;;;25.52;16.13;;;2.70;99.90;;;;;;4970293;28;20038;-51
2023/12/01 01:49:51;;;;;;;30.40;17.17;;;2.70;99.90;;;;;;4969362;28;20027;-49
2023/12/01 01:52:17;;;;;;;29.60;17.13;;;2.80;99.90;;;;;;4969590;28;20042;-48
2023/12/01 01:54:43;;;;;;;26.33;16.02;;;2.80;99.90;;;;;;4969548;28;20035;-49
2023/12/01 01:57:09;;;;;;;27.42;16.45;;;2.80;99.90;;;;;;4969680;28;20027;-47
2023/12/01 01:59:35;;;;;;;24.92;14.88;;;2.70;99.90;;;;;;4969755;28;20027;-51
2023/12/01 02:02:00;;;;;;;24.73;14.10;;;2.70;99.90;;;;;;4952173;28;20026;-48
2023/12/01 02:04:26;;;;;;;21.20;13.40;;;2.70;99.90;;;;;;4969300;28;20027;-49
2023/12/01 02:06:51;;;;;;;23.55;13.80;;;2.70;99.90;;;;;;4969513;28;20027;-50
2023/12/01 02:09:17;;;;;;;21.52;13.75;;;2.80;99.90;;;;;;4969599;28;20136;-52
2023/12/01 02:11:43;;;;;;;22.90;14.18;;;2.80;99.90;;;;;;4969613;28;20113;-49
2023/12/01 02:14:09;;;;;;;23.25;11.93;;;2.80;99.90;;;;;;4969386;28;20027;-49
2023/12/01 02:16:35;;;;;;;20.55;11.88;;;2.80;99.90;;;;;;4969220;28;20027;-46
2023/12/01 02:19:00;;;;;;;20.35;11.85;;;2.70;99.90;;;;;;4952177;28;20454;-48
2023/12/01 02:21:34;;;;;;;22.45;12.68;;;2.70;99.90;;;;;;4969245;28;20050;-50
2023/12/01 02:23:59;;;;;;;21.52;12.65;;;2.60;99.90;;;;;;4951539;28;20121;-49
2023/12/01 02:26:25;;;;;;;19.73;11.73;;;2.60;99.90;;;;;;4969386;28;20102;-52
2023/12/01 02:28:50;;;;;;;19.40;12.45;;;2.60;99.90;;;;;;4969373;28;20041;-49
2023/12/01 02:31:16;;;;;;;20.45;12.02;;;2.60;99.90;;;;;;4969179;28;20457;-49
2023/12/01 02:33:41;;;;;;;20.70;13.00;;;2.60;99.90;;;;;;4968954;28;20070;-48
2023/12/01 02:36:08;;;;;;;16.80;11.38;;;2.60;99.90;;;;;;4969573;28;20061;-48
2023/12/01 02:38:34;;;;;;;17.77;11.13;;;2.60;99.90;;;;;;4969472;28;20023;-48
2023/12/01 02:41:02;;;;;;;20.02;12.57;;;2.60;99.90;;;;;;4952478;28;20054;-48
2023/12/01 02:43:28;;;;;;;20.15;11.30;;;2.60;99.90;;;;;;4969201;28;20034;-49
2023/12/01 02:45:53;;;;;;;17.65;11.23;;;2.60;99.90;;;;;;4969549;28;20023;-48
2023/12/01 02:48:19;;;;;;;17.88;11.50;;;2.60;99.90;;;;;;4969369;28;20049;-48
2023/12/01 02:50:45;;;;;;;20.63;11.32;;;2.60;99.90;;;;;;4951964;28;20035;-52
2023/12/01 02:53:10;;;;;;;19.17;11.10;;;2.50;99.90;;;;;;4970059;28;20026;-49
2023/12/01 02:55:36;;;;;;;17.85;11.23;;;2.50;99.90;;;;;;4972106;28;20042;-44
2023/12/01 02:58:02;;;;;;;17.73;11.50;;;2.50;99.90;;;;;;4972351;28;20023;-46
2023/12/01 03:00:28;;;;;;;17.40;11.15;;;2.50;99.90;;;;;;4972288;28;20027;-46
2023/12/01 03:02:54;;;;;;;18.15;10.57;;;2.50;99.90;;;;;;4954818;28;20421;-48
2023/12/01 03:05:20;;;;;;;17.38;10.45;;;2.40;99.90;;;;;;4954878;28;20030;-48
2023/12/01 03:07:46;;;;;;;16.30;10.68;;;2.50;99.90;;;;;;4954714;28;20027;-43
2023/12/01 03:10:12;;;;;;;19.98;10.30;;;2.50;99.90;;;;;;4955119;28;20548;-47
2023/12/01 03:12:40;;;;;;;16.45;9.50;;;2.50;99.90;;;;;;4971937;28;20027;-48
2023/12/01 03:15:20;;;;;;;15.02;8.82;;;2.50;99.90;;;;;;4971921;28;20027;-48
2023/12/01 03:17:46;;;;;;;14.50;10.30;;;2.50;99.90;;;;;;4954649;28;20034;-48
2023/12/01 03:20:14;;;;;;;16.48;10.40;;;2.40;99.90;;;;;;4971953;28;20023;-47
2023/12/01 03:22:41;;;;;;;16.63;9.63;;;2.40;99.90;;;;;;4971802;28;20050;-48
2023/12/01 03:25:11;;;;;;;12.43;8.27;;;2.40;99.90;;;;;;4954560;28;20083;-49
2023/12/01 03:27:48;;;;;;;14.38;8.88;;;2.40;99.90;;;;;;4971924;28;20020;-49
2023/12/01 03:30:18;;;;;;;14.48;8.30;;;2.50;99.90;;;;;;4971851;28;20056;-50
2023/12/01 03:32:51;;;;;;;12.63;8.85;;;2.50;99.90;;;;;;4971660;28;20038;-49
2023/12/01 03:35:22;;;;;;;12.27;8.50;;;2.50;99.90;;;;;;4971697;28;20394;-47
2023/12/01 03:37:49;;;;;;;13.90;8.35;;;2.50;99.90;;;;;;4971801;28;20019;-53
2023/12/01 03:40:15;;;;;;;13.77;7.75;;;2.50;99.90;;;;;;4971685;28;20110;-52
2023/12/01 03:42:43;;;;;;;11.93;8.05;;;2.40;99.90;;;;;;4954320;28;20092;-47
2023/12/01 03:45:12;;;;;;;12.65;9.02;;;2.40;99.90;;;;;;4971729;28;20039;-50
2023/12/01 03:47:45;;;;;;;11.70;8.18;;;2.40;99.90;;;;;;4971747;28;20073;-48
2023/12/01 03:50:14;;;;;;;10.63;8.23;;;2.40;99.90;;;;;;4971836;28;20401;-47
2023/12/01 03:52:48;;;;;;;12.25;8.20;;;2.50;99.90;;;;;;4971355;28;20509;-48
2023/12/01 03:55:14;;;;;;;10.73;7.63;;;2.40;99.90;;;;;;4971534;28;20027;-48
2023/12/01 03:57:40;;;;;;;10.90;7.63;;;2.50;99.90;;;;;;4971446;28;20440;-45
2023/12/01 04:00:13;;;;;;;9.48;7.22;;;2.40;99.90;;;;;;4971527;28;20027;-45
2023/12/01 04:02:41;;;;;;;8.63;6.45;;;2.40;99.90;;;;;;4971406;28;20088;-46
2023/12/01 04:05:07;;;;;;;9.10;7.15;;;2.40;99.90;;;;;;4970776;28;20442;-46
2023/12/01 04:07:33;;;;;;;10.35;7.05;;;2.50;99.90;;;;;;4971351;28;20058;-46
2023/12/01 04:09:59;;;;;;;10.15;6.63;;;2.40;99.90;;;;;;4971311;28;20114;-53
2023/12/01 04:12:24;;;;;;;9.02;6.72;;;2.50;99.90;;;;;;4971580;28;20106;-53
2023/12/01 04:14:50;;;;;;;7.70;5.95;;;2.50;99.90;;;;;;4971438;28;20371;-55
2023/12/01 04:17:15;;;;;;;7.65;5.72;;;2.40;99.90;;;;;;4971079;28;20023;-52
2023/12/01 04:19:41;;;;;;;8.43;5.93;;;2.30;99.90;;;;;;4971612;28;20049;-47
2023/12/01 04:22:06;;;;;;;7.43;5.78;;;2.30;99.90;;;;;;4971216;28;20050;-49
2023/12/01 04:24:33;;;;;;;8.15;5.82;;;2.30;99.90;;;;;;4970804;28;20031;-50
2023/12/01 04:27:03;;;;;;;8.35;6.13;;;2.30;99.90;;;;;;4971029;28;20027;-50
2023/12/01 04:29:29;;;;;;;7.78;5.57;;;2.40;99.90;;;;;;4970868;28;20034;-50
2023/12/01 04:31:55;;;;;;;7.88;5.65;;;2.40;99.90;;;;;;4970810;28;20109;-47
2023/12/01 04:34:21;;;;;;;7.88;5.97;;;2.40;99.90;;;;;;4970865;28;20026;-50
2023/12/01 04:36:48;;;;;;;7.28;5.35;;;2.30;99.90;;;;;;4953604;28;20030;-47
2023/12/01 04:39:14;;;;;;;8.02;5.78;;;2.40;99.90;;;;;;4970893;28;20027;-49
2023/12/01 04:41:40;;;;;;;8.18;5.13;;;2.50;99.90;;;;;;4970659;28;20030;-47
2023/12/01 04:44:05;;;;;;;7.25;5.30;;;2.50;99.90;;;;;;4970084;28;20027;-45
2023/12/01 04:46:31;;;;;;;7.07;5.25;;;2.50;99.90;;;;;;4970580;28;20035;-49
2023/12/01 04:48:56;;;;;;;7.50;5.68;;;2.50;99.90;;;;;;4970796;28;20432;-46
2023/12/01 04:51:23;;;;;;;5.35;4.68;;;2.60;99.90;;;;;;4970446;28;20451;-47
2023/12/01 04:53:48;;;;;;;6.20;4.78;;;2.50;99.90;;;;;;4970314;28;20053;-50
2023/12/01 04:56:14;;;;;;;8.88;5.60;;;2.40;99.90;;;;;;4970597;28;20049;-48
2023/12/01 04:58:39;;;;;;;5.30;4.55;;;2.40;99.90;;;;;;4970421;28;20077;-49
2023/12/01 05:01:05;;;;;;;6.80;5.03;;;2.50;99.90;;;;;;4970321;28;20023;-48
2023/12/01 05:03:31;;;;;;;7.38;5.95;;;2.50;99.90;;;;;;4970424;28;20038;-47
2023/12/01 05:05:58;;;;;;;6.55;5.03;;;2.60;99.90;;;;;;4953173;28;20272;-48
2023/12/01 05:08:27;;;;;;;5.95;5.00;;;2.70;99.90;;;;;;4970505;28;20027;-49
2023/12/01 05:10:54;;;;;;;7.32;5.22;;;2.70;99.90;;;;;;4970677;28;20023;-49
2023/12/01 05:13:20;;;;;;;5.35;4.82;;;2.60;99.90;;;;;;4953145;28;20113;-50
2023/12/01 05:15:46;;;;;;;6.63;5.13;;;2.60;99.90;;;;;;4970079;28;20110;-47
2023/12/01 05:18:11;;;;;;;4.80;4.25;;;2.60;99.90;;;;;;4952827;28;20551;-48
2023/12/01 05:20:38;;;;;;;7.43;5.15;;;2.60;99.90;;;;;;4970641;28;20084;-49
2023/12/01 05:23:05;;;;;;;5.90;4.90;;;2.60;99.90;;;;;;4970175;28;20035;-50
2023/12/01 05:25:35;;;;;;;6.13;4.68;;;2.60;99.90;;;;;;4970421;28;20031;-49
2023/12/01 05:28:03;;;;;;;5.93;4.75;;;2.60;99.90;;;;;;4970520;28;20037;-53
2023/12/01 05:30:30;;;;;;;6.03;4.85;;;2.60;99.90;;;;;;4953049;28;20031;-54
2023/12/01 05:33:00;;;;;;;6.15;4.78;;;2.50;99.90;;;;;;4970059;28;20031;-48
2023/12/01 05:35:27;;;;;;;8.48;5.43;;;2.60;99.90;;;;;;4970240;28;20019;-49
2023/12/01 05:37:54;;;;;;;6.22;5.30;;;2.50;99.90;;;;;;4970325;28;20474;-47
2023/12/01 05:40:23;;;;;;;7.32;5.53;;;2.50;99.90;;;;;;4970236;28;20027;-51
2023/12/01 05:42:52;;;;;;;8.40;5.00;;;2.60;99.90;;;;;;4969800;28;20441;-47
2023/12/01 05:45:18;;;;;;;7.32;5.45;;;2.50;99.90;;;;;;4970091;28;20027;-47
2023/12/01 05:47:45;;;;;;;5.50;4.93;;;2.50;99.90;;;;;;4970386;28;20529;-50
2023/12/01 05:50:12;;;;;;;6.68;5.95;;;2.50;99.90;;;;;;4969837;28;20100;-49
2023/12/01 05:52:39;;;;;;;9.48;6.20;;;2.50;99.90;;;;;;4970015;28;20027;-51
2023/12/01 05:55:10;;;;;;;8.60;5.97;;;2.60;99.90;;;;;;4969710;28;20022;-47
2023/12/01 05:57:36;;;;;;;9.02;6.60;;;2.50;99.90;;;;;;4969970;28;20027;-47
2023/12/01 06:00:02;;;;;;;8.02;6.40;;;2.60;99.90;;;;;;4969930;28;20085;-46
2023/12/01 06:02:28;;;;;;;9.48;7.00;;;2.60;99.90;;;;;;4969873;28;20039;-49
2023/12/01 06:04:57;;;;;;;7.90;6.32;;;2.70;99.90;;;;;;4969606;28;20485;-52
2023/12/01 06:07:23;;;;;;;9.68;7.43;;;2.60;99.90;;;;;;4969820;28;20018;-50
2023/12/01 06:09:48;;;;;;;8.50;7.05;;;2.60;99.90;;;;;;4969462;28;20088;-51
2023/12/01 06:12:14;;;;;;;9.65;7.28;;;2.50;99.90;;;;;;4969758;28;20031;-47
2023/12/01 06:14:39;;;;;;;11.07;7.15;;;2.50;99.90;;;;;;4969872;28;20050;-51
2023/12/01 06:17:07;;;;;;;9.93;7.97;;;2.50;99.90;;;;;;4952643;28;20046;-47
2023/12/01 06:19:32;;;;;;;10.55;6.97;;;2.50;99.90;;;;;;4969762;28;20513;-47
2023/12/01 06:21:58;;;;;;;9.98;8.40;;;2.50;99.90;;;;;;4969963;28;20031;-48
2023/12/01 06:24:24;;;;;;;11.50;8.43;;;2.50;99.90;;;;;;4969610;28;20605;-48
2023/12/01 06:26:52;;;;;;;11.85;8.13;;;2.50;99.90;;;;;;4952947;28;20126;-51
2023/12/01 06:29:18;;;;;;;10.70;7.75;;;2.40;99.90;;;;;;4972829;28;20037;-49
2023/12/01 06:31:44;;;;;;;12.38;8.32;;;2.50;99.90;;;;;;4973254;28;20027;-48
2023/12/01 06:34:10;;;;;;;10.98;8.43;;;2.50;99.90;;;;;;4973109;28;20490;-53
2023/12/01 06:36:35;;;;;;;17.20;8.50;;;2.50;99.90;;;;;;4973065;28;20098;-51
2023/12/01 06:39:01;;;;;;;10.85;8.15;;;2.40;99.90;;;;;;4972979;28;20027;-49
2023/12/01 06:41:26;;;;;;;12.30;8.73;;;2.50;99.90;;;;;;4973083;28;20035;-49
2023/12/01 06:43:52;;;;;;;9.63;7.28;;;2.40;99.90;;;;;;4972716;28;20072;-52
2023/12/01 06:46:17;;;;;;;12.32;8.23;;;2.40;99.90;;;;;;4955981;28;20398;-51
2023/12/01 06:48:43;;;;;;;13.70;8.75;;;2.30;99.90;;;;;;4973436;28;20122;-51
2023/12/01 06:51:08;;;;;;;13.82;9.00;;;2.40;99.90;;;;;;4973301;28;20441;-50
2023/12/01 06:53:34;;;;;;;13.38;8.98;;;2.30;99.90;;;;;;4972936;28;20031;-48
2023/12/01 06:56:00;;;;;;;10.25;7.72;;;2.40;99.90;;;;;;4972970;28;20034;-50
2023/12/01 06:58:26;;;;;;;14.35;9.23;;;2.40;99.90;;;;;;4973046;28;20049;-51
2023/12/01 07:00:56;;;;;;;10.90;7.70;;;2.30;99.90;;;;;;4973328;28;20066;-52
2023/12/01 07:03:22;;;;;;;15.00;9.60;;;2.30;99.90;;;;;;4972417;28;20109;-51
2023/12/01 07:05:51;;;;;;;13.13;8.88;;;2.30;99.90;;;;;;4972486;28;20397;-49
2023/12/01 07:08:17;;;;;;;13.45;8.57;;;2.30;99.90;;;;;;4972713;28;20031;-54
2023/12/01 07:10:44;;;;;;;14.57;8.63;;;2.30;99.90;;;;;;4972428;28;20477;-49
2023/12/01 07:13:09;;;;;;;13.32;8.02;;;2.30;99.90;;;;;;4972296;28;20462;-48
2023/12/01 07:15:37;;;;;;;14.75;9.85;;;2.30;99.90;;;;;;4990041;22;20086;-44
2023/12/01 07:18:04;;;;;;;12.98;8.27;;;2.30;99.90;;;;;;4970519;28;20019;-49
2023/12/01 07:20:31;;;;;;;12.00;8.57;;;2.30;99.90;;;;;;4972210;28;20429;-44
2023/12/01 07:22:56;;;;;;;13.32;8.60;;;2.30;99.90;;;;;;4954598;28;20132;-50
2023/12/01 07:25:25;;;;;;;10.63;7.72;;;2.30;99.90;;;;;;4972064;28;20027;-50
2023/12/01 07:28:05;;;;;;;12.02;8.00;;;2.30;99.90;;;;;;4972037;28;20023;-50
2023/12/01 07:30:31;;;;;;;11.38;8.02;;;2.30;99.90;;;;;;4972193;28;20081;-48
2023/12/01 07:32:59;;;;;;;12.38;8.80;;;2.30;99.90;;;;;;4972426;28;20481;-48
2023/12/01 07:35:24;;;;;;;13.88;10.02;;;2.30;99.90;;;;;;4973461;28;20313;-49
2023/12/01 07:37:52;;;;;;;14.60;8.93;;;2.30;99.90;;;;;;4955804;28;20031;-48
2023/12/01 07:40:23;;;;;;;12.82;8.43;;;2.40;99.90;;;;;;4972240;28;20106;-51
2023/12/01 07:42:52;;;;;;;10.80;7.72;;;2.40;99.90;;;;;;4972300;28;20571;-47
2023/12/01 07:45:18;;;;;;;11.77;8.25;;;2.40;99.90;;;;;;4973638;28;20034;-52
2023/12/01 07:47:44;;;;;;;14.48;8.70;;;2.40;99.90;;;;;;4973786;28;20056;-50
2023/12/01 07:50:10;;;;;;;15.50;9.35;;;2.50;99.90;;;;;;4973990;28;20031;-47
2023/12/01 07:52:35;;;;;;;13.57;8.82;;;2.50;99.90;;;;;;4972219;28;20390;-46
2023/12/01 07:55:01;;;;;;;14.27;9.35;;;2.50;99.90;;;;;;4971402;28;20410;-51
2023/12/01 07:57:26;;;;;;;12.07;8.52;;;2.40;99.90;;;;;;4971601;28;20034;-48
2023/12/01 07:59:52;;;;;;;13.00;9.45;;;2.50;99.90;;;;;;4971582;28;20088;-50
2023/12/01 08:02:17;;;;;;;12.98;8.35;;;2.40;99.90;;;;;;4971429;28;20158;-49
2023/12/01 08:04:43;;;;;;;12.50;8.40;;;2.40;99.90;;;;;;4971125;28;20048;-49
2023/12/01 08:07:09;;;;;;;13.60;9.07;;;2.40;99.90;;;;;;4954176;28;20057;-49
2023/12/01 08:09:34;;;;;;;13.23;8.35;;;2.40;99.90;;;;;;4971503;28;20041;-46
2023/12/01 08:12:03;;;;;;;14.10;9.85;;;2.40;99.90;;;;;;4971260;28;20065;-51
2023/12/01 08:14:28;;;;;;;14.00;8.95;;;2.40;99.90;;;;;;4970955;28;20062;-47
2023/12/01 08:16:54;;;;;;;12.98;8.80;;;2.50;99.90;;;;;;4971858;28;20066;-47
2023/12/01 08:19:19;;;;;;;11.32;7.85;;;2.50;99.90;;;;;;4954742;28;20118;-47
2023/12/01 08:21:45;;;;;;;12.38;8.77;;;2.40;99.90;;;;;;4971379;28;20027;-51
2023/12/01 08:24:11;;;;;;;13.30;8.90;;;2.40;99.90;;;;;;4953482;28;20054;-46
2023/12/01 08:26:37;;;;;;;24.33;8.35;;;2.50;99.90;;;;;;4953828;28;20033;-49
2023/12/01 08:29:03;;;;;;;14.63;10.15;;;2.40;99.90;;;;;;4970941;28;20026;-51
2023/12/01 08:31:30;;;;;;;18.13;9.55;;;2.40;99.90;;;;;;4970987;28;20260;-51
2023/12/01 08:33:56;;;;;;;15.13;10.02;;;2.50;99.90;;;;;;4970503;28;20060;-47
2023/12/01 08:36:22;;;;;;;16.23;10.35;;;2.50;99.90;;;;;;4970873;28;20514;-48
2023/12/01 08:38:47;;;;;;;18.55;10.48;;;2.40;99.90;;;;;;4971281;28;20023;-50
2023/12/01 08:41:13;;;;;;;16.42;10.73;;;2.50;99.90;;;;;;4971127;28;20073;-49
2023/12/01 08:43:38;;;;;;;17.95;11.23;;;2.40;99.90;;;;;;4965903;28;20108;-45
2023/12/01 08:46:04;;;;;;;16.02;10.27;;;2.40;99.90;;;;;;4951392;29;20031;-48
2023/12/01 08:48:30;;;;;;;19.80;12.25;;;2.50;99.90;;;;;;4934323;29;20032;-47
2023/12/01 08:50:55;;;;;;;17.90;11.68;;;2.50;99.90;;;;;;4967247;28;20038;-48
2023/12/01 08:53:22;;;;;;;14.70;10.98;;;2.50;99.90;;;;;;4970586;28;20026;-47
2023/12/01 08:55:48;;;;;;;22.42;13.95;;;2.50;99.90;;;;;;4970656;28;20019;-49
2023/12/01 08:58:13;;;;;;;15.85;10.57;;;2.50;99.90;;;;;;4953375;28;20029;-54
2023/12/01 09:00:40;;;;;;;20.30;13.27;;;2.50;99.90;;;;;;4946150;28;20023;-53
2023/12/01 09:03:06;;;;;;;16.58;10.93;;;2.60;99.90;;;;;;4950776;28;20031;-53
2023/12/01 09:05:32;;;;;;;21.80;13.27;;;2.60;99.90;;;;;;4960974;28;20486;-52
2023/12/01 09:07:59;;;;;;;19.60;12.32;;;2.60;99.90;;;;;;4953017;28;20034;-54
2023/12/01 09:10:25;;;;;;;16.38;11.52;;;2.60;99.90;;;;;;4970610;28;20022;-46
2023/12/01 09:12:50;;;;;;;16.05;10.68;;;2.70;99.90;;;;;;4969798;28;20076;-47
2023/12/01 09:15:16;;;;;;;17.90;11.57;;;2.60;99.90;;;;;;4952849;28;20525;-47
2023/12/01 09:17:42;;;;;;;15.02;10.02;;;2.60;99.90;;;;;;4957670;28;20498;-48
2023/12/01 09:20:09;;;;;;;17.63;11.05;;;2.60;99.90;;;;;;4951461;28;20114;-48
2023/12/01 09:22:37;;;;;;;15.10;10.88;;;2.70;99.90;;;;;;4956748;28;20091;-53
2023/12/01 09:25:04;;;;;;;17.08;11.55;;;2.70;99.90;;;;;;4944258;28;20034;-48
2023/12/01 09:27:29;;;;;;;18.73;11.73;;;2.70;99.90;;;;;;4933549;29;20118;-45
2023/12/01 09:29:55;;;;;;;16.60;11.30;;;2.70;99.90;;;;;;4957369;28;20177;-47
2023/12/01 09:32:21;;;;;;;17.05;11.85;;;2.60;99.90;;;;;;4965365;28;20585;-48
2023/12/01 09:34:47;;;;;;;17.02;12.07;;;2.60;99.90;;;;;;4967520;28;20031;-51
2023/12/01 09:37:12;;;;;;;20.17;11.77;;;2.60;99.90;;;;;;4970823;28;20023;-48
2023/12/01 09:39:38;;;;;;;25.40;11.60;;;2.60;99.90;;;;;;4953317;28;20034;-48
2023/12/01 09:42:06;;;;;;;18.67;11.73;;;2.50;99.90;;;;;;4953823;28;20547;-51
2023/12/01 09:44:40;;;;;;;20.23;13.05;;;2.60;99.90;;;;;;4952906;28;20031;-54
2023/12/01 09:47:10;;;;;;;16.80;11.52;;;2.60;99.90;;;;;;4970126;28;20043;-54
2023/12/01 09:49:37;;;;;;;18.58;10.43;;;2.60;99.90;;;;;;4970102;28;20402;-51
2023/12/01 09:52:04;;;;;;;20.10;10.98;;;2.50;99.90;;;;;;4952621;28;20375;-49
2023/12/01 09:54:30;;;;;;;15.88;10.57;;;2.60;99.90;;;;;;4969566;28;20062;-52
2023/12/01 09:57:04;;;;;;;20.55;11.95;;;2.70;99.90;;;;;;4970027;28;20031;-53
2023/12/01 09:59:30;;;;;;;21.58;11.85;;;2.50;99.90;;;;;;4952543;28;20042;-52
2023/12/01 10:01:55;;;;;;;18.35;12.45;;;2.60;99.90;;;;;;4969704;28;20027;-47
2023/12/01 10:04:21;;;;;;;16.95;11.73;;;2.50;99.90;;;;;;4959585;28;20090;-47
2023/12/01 10:06:47;;;;;;;18.95;12.23;;;2.60;99.90;;;;;;4955892;28;20035;-51
2023/12/01 10:09:24;;;;;;;23.50;11.60;;;2.60;99.90;;;;;;4966474;28;20395;-45
2023/12/01 10:12:09;;;;;;;17.45;11.25;;;2.50;99.90;;;;;;4954790;29;20521;-51
2023/12/01 10:14:35;;;;;;;18.10;10.82;;;2.40;99.90;;;;;;4937607;29;20070;-49
2023/12/01 10:17:05;;;;;;;22.02;12.07;;;2.40;99.90;;;;;;4937356;29;20114;-49
2023/12/01 10:19:36;;;;;;;18.50;11.10;;;2.50;99.90;;;;;;4955605;28;20431;-49
2023/12/01 10:22:01;;;;;;;19.77;12.43;;;2.50;99.90;;;;;;4960153;28;20102;-54
2023/12/01 10:24:27;;;;;;;16.63;11.70;;;2.50;99.90;;;;;;4954458;28;20103;-55
2023/12/01 10:26:54;;;;;;;15.52;10.43;;;2.60;99.90;;;;;;5015638;28;20036;-55
2023/12/01 10:29:24;;;;;;;16.48;10.88;;;2.60;99.90;;;;;;4973237;28;20029;-55
2023/12/01 10:31:50;;;;;;;14.50;10.60;;;2.70;99.90;;;;;;4947592;28;20065;-49
2023/12/01 10:34:16;;;;;;;15.98;10.45;;;2.60;99.90;;;;;;4964792;28;20459;-51
2023/12/01 10:36:42;;;;;;;15.60;10.43;;;2.50;99.90;;;;;;4953571;28;20027;-52
2023/12/01 10:39:10;;;;;;;16.13;10.43;;;2.40;99.90;;;;;;4954445;28;20027;-54
2023/12/01 10:41:39;;;;;;;15.25;10.88;;;2.50;99.90;;;;;;4953802;28;20034;-50
2023/12/01 10:44:05;;;;;;;16.55;10.15;;;2.50;99.90;;;;;;5014024;28;20021;-55
2023/12/01 10:46:33;;;;;;;14.02;10.02;;;2.60;99.90;;;;;;4973799;28;20032;-53
2023/12/01 10:49:00;;;;;;;15.27;10.15;;;2.60;99.90;;;;;;4965476;28;20033;-52
2023/12/01 10:51:27;;;;;;;14.95;9.80;;;2.60;99.90;;;;;;4937240;28;20039;-56
2023/12/01 10:53:55;;;;;;;13.93;9.73;;;2.50;99.90;;;;;;4960876;28;20055;-52
2023/12/01 10:56:23;;;;;;;14.85;9.63;;;2.50;99.90;;;;;;4951719;28;20441;-55
2023/12/01 10:58:53;;;;;;;13.48;8.63;;;2.50;99.90;;;;;;4953017;29;20027;-44
2023/12/01 11:01:21;;;;;;;13.15;9.50;;;2.50;99.90;;;;;;4958699;28;20125;-47
2023/12/01 11:03:48;;;;;;;15.52;9.20;;;2.60;99.90;;;;;;4969350;28;20082;-48
2023/12/01 11:06:28;;;;;;;10.05;7.60;;;2.60;99.90;;;;;;4952456;28;20039;-48
2023/12/01 11:09:09;;;;;;;12.75;9.75;;;2.60;99.90;;;;;;4972327;28;20084;-46
2023/12/01 11:11:50;;;;;;;11.70;8.20;;;2.60;99.90;;;;;;4966304;28;20031;-48
2023/12/01 11:14:18;;;;;;;9.00;7.00;;;2.60;99.90;;;;;;4965208;28;20042;-48
2023/12/01 11:16:47;;;;;;;11.65;7.72;;;2.60;99.90;;;;;;4961048;28;20031;-47
2023/12/01 11:19:13;;;;;;;8.65;7.43;;;2.70;99.90;;;;;;4952030;28;20483;-45
2023/12/01 11:21:42;;;;;;;9.85;7.32;;;2.60;99.90;;;;;;4954323;28;20121;-50
2023/12/01 11:24:30;;;;;;;11.85;7.60;;;2.60;99.90;;;;;;4960747;28;20027;-46
2023/12/01 11:27:03;;;;;;;9.35;6.65;;;2.70;99.90;;;;;;4952553;28;20031;-48
2023/12/01 11:29:32;;;;;;;9.70;6.80;;;2.70;99.90;;;;;;4972552;28;20034;-48
2023/12/01 11:31:58;;;;;;;8.75;6.63;;;2.60;99.90;;;;;;4953347;28;20522;-52
2023/12/01 11:34:25;;;;;;;7.40;5.97;;;2.60;99.90;;;;;;4958878;28;20027;-50
2023/12/01 11:36:52;;;;;;;7.35;6.15;;;2.60;99.90;;;;;;4963924;28;20154;-48
2023/12/01 11:39:29;;;;;;;34.10;17.42;;;2.50;99.90;;;;;;4953546;28;20055;-51
2023/12/01 11:41:57;;;;;;;7.47;6.10;;;2.50;99.90;;;;;;4965154;28;20034;-54
2023/12/01 11:44:40;;;;;;;6.60;5.20;;;2.50;99.90;;;;;;4955583;28;20034;-47
2023/12/01 11:47:12;;;;;;;7.03;5.40;;;2.50;99.90;;;;;;4987926;28;20026;-51
2023/12/01 11:49:46;;;;;;;6.90;5.30;;;2.60;99.90;;;;;;4960025;28;20039;-48
2023/12/01 11:52:14;;;;;;;7.82;5.65;;;2.50;99.90;;;;;;4971671;28;20083;-47
2023/12/01 11:54:41;;;;;;;6.35;5.75;;;2.40;99.90;;;;;;4961204;28;20114;-57
2023/12/01 11:57:08;;;;;;;7.80;6.07;;;2.40;99.90;;;;;;4952448;29;20061;-54
2023/12/01 12:02:14;;;;;;;7.03;5.88;;;2.30;99.90;;;;;;5316983;22;20524;-46
2023/12/01 12:04:42;;;;;;;8.95;6.25;;;2.40;99.90;;;;;;4950418;28;20463;-52
2023/12/01 12:07:08;;;;;;;7.93;6.25;;;2.50;99.90;;;;;;4952168;28;20053;-61
2023/12/01 12:09:35;;;;;;;7.20;6.10;;;2.60;99.90;;;;;;4974923;28;20030;-55
2023/12/01 12:12:04;;;;;;;7.18;6.00;;;2.60;99.90;;;;;;4973996;28;20031;-52
2023/12/01 12:14:30;;;;;;;6.15;5.55;;;2.50;99.90;;;;;;4959848;23;20509;-60
2023/12/01 12:16:57;;;;;;;9.50;6.13;;;2.60;99.90;;;;;;4956978;28;20023;-57
2023/12/01 12:19:23;;;;;;;8.52;6.28;;;2.50;99.90;;;;;;4934376;29;20133;-55
2023/12/01 12:21:49;;;;;;;9.15;7.20;;;2.50;99.90;;;;;;4942980;28;20102;-52
2023/12/01 12:24:15;;;;;;;16.27;7.13;;;2.50;99.90;;;;;;4951243;28;20084;-55
2023/12/01 12:26:42;;;;;;;9.18;6.82;;;2.60;99.90;;;;;;4970881;28;20482;-51
2023/12/01 12:29:08;;;;;;;12.32;9.18;;;2.60;99.90;;;;;;4971572;28;20023;-53
2023/12/01 12:31:37;;;;;;;13.45;7.88;;;2.60;99.90;;;;;;4970774;28;20089;-53
2023/12/01 12:34:06;;;;;;;8.38;7.45;;;2.60;99.90;;;;;;4953771;28;20489;-56
2023/12/01 12:36:34;;;;;;;15.52;8.43;;;2.60;99.90;;;;;;4971252;28;20037;-55
2023/12/01 12:39:02;;;;;;;8.75;7.22;;;2.70;99.90;;;;;;4953422;28;20051;-53
2023/12/01 12:41:29;;;;;;;10.65;7.55;;;2.70;99.90;;;;;;4970909;28;20553;-56
2023/12/01 12:44:03;;;;;;;11.10;6.82;;;2.70;99.90;;;;;;4971044;28;20440;-56
2023/12/01 12:46:30;;;;;;;10.80;7.90;;;2.70;99.90;;;;;;4953859;28;20114;-55